createdAt,value
2023-05-25T00:02:09.290Z,73.54
2023-05-25T00:04:38.470Z,73.51
2023-05-25T00:07:06.771Z,74.13
2023-05-25T00:09:36.362Z,73.95
2023-05-25T00:12:04.840Z,74.46
2023-05-25T00:14:33.020Z,74.66
2023-05-25T00:17:03.984Z,74.58
2023-05-25T00:19:34.003Z,74.74
2023-05-25T00:22:03.048Z,74.89
2023-05-25T00:24:31.801Z,74.77
2023-05-25T00:27:00.536Z,75.12
2023-05-25T00:29:28.966Z,75.17
2023-05-25T00:31:57.229Z,75.40
2023-05-25T00:34:25.590Z,75.30
2023-05-25T00:36:55.356Z,75.55
2023-05-25T00:39:23.525Z,75.56
2023-05-25T00:41:51.869Z,75.81
2023-05-25T00:44:21.676Z,75.70
2023-05-25T00:46:52.448Z,76.28
2023-05-25T00:49:23.521Z,77.04
2023-05-25T00:51:54.404Z,76.36
2023-05-25T00:54:22.916Z,76.40
2023-05-25T00:56:57.241Z,76.08
2023-05-25T00:59:35.689Z,76.92
2023-05-25T01:02:06.969Z,76.81
2023-05-25T01:04:38.105Z,76.67
2023-05-25T01:07:12.848Z,76.15
2023-05-25T01:09:44.684Z,76.80
2023-05-25T01:12:15.980Z,77.02
2023-05-25T01:14:46.734Z,77.03
2023-05-25T01:17:16.334Z,77.48
2023-05-25T01:19:49.705Z,77.62
2023-05-25T01:22:38.174Z,77.25
2023-05-25T01:25:14.642Z,77.32
2023-05-25T01:27:49.709Z,77.65
2023-05-25T01:30:23.287Z,77.25
2023-05-25T01:32:54.319Z,76.75
2023-05-25T01:35:24.128Z,76.68
2023-05-25T01:37:53.971Z,76.50
2023-05-25T01:40:22.257Z,76.54
2023-05-25T01:42:50.371Z,76.93
2023-05-25T01:45:18.570Z,77.11
2023-05-25T01:47:58.547Z,77.31
2023-05-25T01:50:52.332Z,77.72
2023-05-25T01:53:27.656Z,77.63
2023-05-25T01:56:01.683Z,77.59
2023-05-25T01:58:36.539Z,77.30
2023-05-25T02:01:05.161Z,77.29
2023-05-25T02:03:33.455Z,77.57
2023-05-25T02:06:01.825Z,78.00
2023-05-25T02:08:31.438Z,78.16
2023-05-25T02:10:59.566Z,78.58
2023-05-25T02:13:27.875Z,78.94
2023-05-25T02:15:56.348Z,78.58
2023-05-25T02:18:24.754Z,79.64
2023-05-25T02:20:53.269Z,79.57
2023-05-25T02:23:21.709Z,79.26
2023-05-25T02:25:51.678Z,78.82
2023-05-25T02:28:19.993Z,78.18
2023-05-25T02:30:48.197Z,78.02
2023-05-25T02:33:16.413Z,78.31
2023-05-25T02:35:45.034Z,78.33
2023-05-25T02:38:13.433Z,78.99
2023-05-25T02:40:42.665Z,78.82
2023-05-25T02:43:12.157Z,78.94
2023-05-25T02:45:40.339Z,78.82
2023-05-25T02:48:08.550Z,79.02
2023-05-25T02:50:37.022Z,78.81
2023-05-25T02:53:05.248Z,78.91
2023-05-25T02:55:33.413Z,78.37
2023-05-25T02:58:01.609Z,78.41
2023-05-25T03:00:31.907Z,79.15
2023-05-25T03:03:00.212Z,79.57
2023-05-25T03:05:28.374Z,80.02
2023-05-25T03:07:56.536Z,80.21
2023-05-25T03:10:24.649Z,80.01
2023-05-25T03:12:52.757Z,79.84
2023-05-25T03:15:20.991Z,79.84
2023-05-25T03:17:50.889Z,78.95
2023-05-25T03:20:20.807Z,78.44
2023-05-25T03:22:48.956Z,78.55
2023-05-25T03:25:17.268Z,79.12
2023-05-25T03:27:45.449Z,79.12
2023-05-25T03:30:15.004Z,79.60
2023-05-25T03:32:43.261Z,79.91
2023-05-25T03:35:12.899Z,79.62
2023-05-25T03:37:41.058Z,79.52
2023-05-25T03:40:11.513Z,79.95
2023-05-25T03:42:40.015Z,80.00
2023-05-25T03:45:10.017Z,79.42
2023-05-25T03:47:38.664Z,79.24
2023-05-25T03:50:08.755Z,79.12
2023-05-25T03:52:38.320Z,79.60
2023-05-25T03:55:07.385Z,79.32
2023-05-25T03:57:35.674Z,79.05
2023-05-25T04:00:04.720Z,79.04
2023-05-25T04:02:34.672Z,79.01
2023-05-25T04:05:03.028Z,79.15
2023-05-25T04:07:31.249Z,78.43
2023-05-25T04:10:00.963Z,78.25
2023-05-25T04:12:29.169Z,77.76
2023-05-25T04:14:57.429Z,77.35
2023-05-25T04:17:25.731Z,75.64
2023-05-25T04:19:54.213Z,76.30
2023-05-25T04:22:22.395Z,75.92
2023-05-25T04:24:50.623Z,75.79
2023-05-25T04:27:20.961Z,75.29
2023-05-25T04:29:50.428Z,74.27
2023-05-25T04:32:18.826Z,74.39
2023-05-25T04:34:48.211Z,73.59
2023-05-25T04:37:17.200Z,73.87
2023-05-25T04:39:45.390Z,73.72
2023-05-25T04:42:13.546Z,72.15
2023-05-25T04:44:43.169Z,72.88
2023-05-25T04:47:12.167Z,72.83
2023-05-25T04:49:40.314Z,73.45
2023-05-25T04:52:08.458Z,66.81
2023-05-25T04:54:37.410Z,61.84
2023-05-25T04:57:06.296Z,58.75
2023-05-25T04:59:34.506Z,55.12
2023-05-25T05:02:04.053Z,54.67
2023-05-25T05:04:32.226Z,51.12
2023-05-25T05:07:00.920Z,51.59
2023-05-25T05:09:29.054Z,49.26
2023-05-25T05:11:57.245Z,49.77
2023-05-25T05:14:25.425Z,47.86
2023-05-25T05:16:53.524Z,48.97
2023-05-25T05:19:23.511Z,48.99
2023-05-25T05:21:51.636Z,49.55
2023-05-25T05:24:19.732Z,50.47
2023-05-25T05:26:56.298Z,49.81
2023-05-25T05:29:26.695Z,51.38
2023-05-25T05:31:55.383Z,54.06
2023-05-25T05:34:24.906Z,56.23
2023-05-25T05:36:58.170Z,56.97
2023-05-25T05:39:28.206Z,57.86
2023-05-25T05:41:57.056Z,59.42
2023-05-25T05:44:28.819Z,60.00
2023-05-25T05:47:00.833Z,59.91
2023-05-25T05:49:31.812Z,60.09
2023-05-25T05:52:00.377Z,60.49
2023-05-25T05:54:28.536Z,59.61
2023-05-25T05:56:56.781Z,59.64
2023-05-25T05:59:24.925Z,59.76
2023-05-25T06:01:53.080Z,60.14
2023-05-25T06:04:25.188Z,59.53
2023-05-25T06:06:54.626Z,60.20
2023-05-25T06:09:22.764Z,58.79
2023-05-25T06:11:51.461Z,58.84
2023-05-25T06:14:19.692Z,58.73
2023-05-25T06:16:47.787Z,59.52
2023-05-25T06:19:16.091Z,59.04
2023-05-25T06:21:44.232Z,59.83
2023-05-25T06:24:13.661Z,60.71
2023-05-25T06:26:41.788Z,59.85
2023-05-25T06:29:09.909Z,60.39
2023-05-25T06:31:38.095Z,59.40
2023-05-25T06:34:06.399Z,59.84
2023-05-25T06:36:34.564Z,59.08
2023-05-25T06:39:02.730Z,59.66
2023-05-25T06:41:32.211Z,59.37
2023-05-25T06:44:00.385Z,59.53
2023-05-25T06:46:28.543Z,59.73
2023-05-25T06:48:56.713Z,60.01
2023-05-25T06:51:27.390Z,60.34
2023-05-25T06:53:57.337Z,59.47
2023-05-25T06:56:26.280Z,58.75
2023-05-25T06:58:55.765Z,58.09
2023-05-25T07:01:24.002Z,57.04
2023-05-25T07:03:52.167Z,57.25
2023-05-25T07:06:22.120Z,57.08
2023-05-25T07:08:50.317Z,56.88
2023-05-25T07:11:20.711Z,57.48
2023-05-25T07:13:48.891Z,59.32
2023-05-25T07:16:18.422Z,60.47
2023-05-25T07:18:46.603Z,59.37
2023-05-25T07:21:14.733Z,58.99
2023-05-25T07:23:42.965Z,58.92
2023-05-25T07:26:11.131Z,58.64
2023-05-25T07:28:39.299Z,59.48
2023-05-25T07:31:07.509Z,59.36
2023-05-25T07:33:37.121Z,58.48
2023-05-25T07:36:06.054Z,58.71
2023-05-25T07:38:34.246Z,59.76
2023-05-25T07:41:02.371Z,60.89
2023-05-25T07:43:30.496Z,62.49
2023-05-25T07:45:58.839Z,60.54
2023-05-25T07:48:26.963Z,59.41
2023-05-25T07:50:56.490Z,58.04
2023-05-25T07:53:24.733Z,57.64
2023-05-25T07:55:52.985Z,56.42
2023-05-25T07:58:21.373Z,56.42
2023-05-25T08:00:50.341Z,56.34
2023-05-25T08:03:20.946Z,55.53
2023-05-25T08:05:52.288Z,54.81
2023-05-25T08:08:22.060Z,55.41
2023-05-25T08:10:50.182Z,56.13
2023-05-25T08:13:18.337Z,56.06
2023-05-25T08:15:46.670Z,54.98
2023-05-25T08:18:14.843Z,53.67
2023-05-25T08:20:43.030Z,53.34
2023-05-25T08:23:11.182Z,53.55
2023-05-25T08:25:41.087Z,54.71
2023-05-25T08:28:09.152Z,54.91
2023-05-25T08:30:37.320Z,54.86
2023-05-25T08:33:06.859Z,54.77
2023-05-25T08:35:39.251Z,54.29
2023-05-25T08:38:07.575Z,54.59
2023-05-25T08:40:35.722Z,54.76
2023-05-25T08:43:05.214Z,54.30
2023-05-25T08:45:36.714Z,54.92
2023-05-25T08:48:26.870Z,54.16
2023-05-25T08:50:58.535Z,53.99
2023-05-25T08:53:29.120Z,53.42
2023-05-25T08:55:59.930Z,53.56
2023-05-25T08:58:35.092Z,53.93
2023-05-25T09:01:09.195Z,53.41
2023-05-25T09:03:39.178Z,51.99
2023-05-25T09:06:08.310Z,52.31
2023-05-25T09:08:39.299Z,51.35
2023-05-25T09:11:09.947Z,51.21
2023-05-25T09:13:41.337Z,51.08
2023-05-25T09:16:11.053Z,49.82
2023-05-25T09:18:40.132Z,49.89
2023-05-25T09:21:08.328Z,49.40
2023-05-25T09:23:38.221Z,49.59
2023-05-25T09:26:06.621Z,48.91
2023-05-25T09:28:34.677Z,47.51
2023-05-25T09:31:04.201Z,45.19
2023-05-25T09:33:33.237Z,46.11
2023-05-25T09:36:02.964Z,46.96
2023-05-25T09:38:32.110Z,47.48
2023-05-25T09:41:00.569Z,47.35
2023-05-25T09:43:40.588Z,48.24
2023-05-25T09:46:12.836Z,47.70
2023-05-25T09:48:41.315Z,46.26
2023-05-25T09:51:10.146Z,45.98
2023-05-25T09:53:38.410Z,47.03
2023-05-25T09:56:07.544Z,47.39
2023-05-25T09:58:36.037Z,47.43
2023-05-25T10:01:04.647Z,47.91
2023-05-25T10:03:34.224Z,47.10
2023-05-25T10:06:04.169Z,47.19
2023-05-25T10:08:33.474Z,45.69
2023-05-25T10:11:02.346Z,45.91
2023-05-25T10:13:33.451Z,45.62
2023-05-25T10:16:03.154Z,45.43
2023-05-25T10:18:37.592Z,44.86
2023-05-25T10:21:09.980Z,44.76
2023-05-25T10:23:46.031Z,44.87
2023-05-25T10:26:21.367Z,44.73
2023-05-25T10:28:52.805Z,46.29
2023-05-25T10:31:22.698Z,46.46
2023-05-25T10:33:52.771Z,45.51
2023-05-25T10:36:23.075Z,43.51
2023-05-25T10:38:53.146Z,43.18
2023-05-25T10:41:21.896Z,43.09
2023-05-25T10:43:53.314Z,43.52
2023-05-25T10:46:22.465Z,43.55
2023-05-25T10:48:52.826Z,43.25
2023-05-25T10:51:21.519Z,43.47
2023-05-25T10:54:01.654Z,43.61
2023-05-25T10:56:29.798Z,43.15
2023-05-25T10:58:58.067Z,43.40
2023-05-25T11:01:26.918Z,44.16
2023-05-25T11:04:17.503Z,44.33
2023-05-25T11:07:13.494Z,44.32
2023-05-25T11:09:58.147Z,44.86
2023-05-25T11:12:27.870Z,45.08
2023-05-25T11:15:16.218Z,43.93
2023-05-25T11:18:01.302Z,43.64
2023-05-25T11:20:31.885Z,43.67
2023-05-25T11:23:00.059Z,43.37
2023-05-25T11:25:41.271Z,42.53
2023-05-25T11:28:11.583Z,43.07
2023-05-25T11:30:42.564Z,43.57
2023-05-25T11:33:11.374Z,43.42
2023-05-25T11:35:45.403Z,43.43
2023-05-25T11:38:13.819Z,44.08
2023-05-25T11:40:41.916Z,43.53
2023-05-25T11:43:10.748Z,43.48
2023-05-25T11:45:39.261Z,42.98
2023-05-25T11:48:08.220Z,43.17
2023-05-25T11:50:36.451Z,44.58
2023-05-25T11:53:08.100Z,44.54
2023-05-25T11:55:40.083Z,45.24
2023-05-25T11:58:08.213Z,44.73
2023-05-25T12:00:36.305Z,44.62
2023-05-25T12:03:05.682Z,44.65
2023-05-25T12:05:40.665Z,43.06
2023-05-25T12:08:10.174Z,42.09
2023-05-25T12:10:51.960Z,41.58
2023-05-25T12:13:21.339Z,41.06
2023-05-25T12:15:49.614Z,41.04
2023-05-25T12:18:18.108Z,41.39
2023-05-25T12:20:46.600Z,41.05
2023-05-25T12:23:16.852Z,41.72
2023-05-25T12:25:51.030Z,40.83
2023-05-25T12:28:19.538Z,41.65
2023-05-25T12:30:47.942Z,42.25
2023-05-25T12:33:16.510Z,41.23
2023-05-25T12:35:49.624Z,41.54
2023-05-25T12:38:22.086Z,42.33
2023-05-25T12:41:07.033Z,42.08
2023-05-25T12:43:39.930Z,40.72
2023-05-25T12:46:08.090Z,41.36
2023-05-25T12:48:36.329Z,41.79
2023-05-25T12:51:04.688Z,41.32
2023-05-25T12:53:50.902Z,42.33
2023-05-25T12:56:19.289Z,42.80
2023-05-25T12:58:47.509Z,42.49
2023-05-25T13:01:15.619Z,43.13
2023-05-25T13:03:43.690Z,43.30
2023-05-25T13:06:11.750Z,42.17
2023-05-25T13:08:41.380Z,42.40
2023-05-25T13:11:09.654Z,42.23
2023-05-25T13:13:37.928Z,42.22
2023-05-25T13:16:06.659Z,42.84
2023-05-25T13:18:34.766Z,42.56
2023-05-25T13:21:03.050Z,42.21
2023-05-25T13:23:32.269Z,41.95
2023-05-25T13:26:01.677Z,41.77
2023-05-25T13:28:29.771Z,42.68
2023-05-25T13:30:57.880Z,42.92
2023-05-25T13:33:25.991Z,42.72
2023-05-25T13:36:08.369Z,42.78
2023-05-25T13:38:38.102Z,42.83
2023-05-25T13:41:07.638Z,42.77
2023-05-25T13:43:36.056Z,42.75
2023-05-25T13:46:04.318Z,43.38
2023-05-25T13:48:32.456Z,43.23
2023-05-25T13:51:00.573Z,42.28
2023-05-25T13:53:28.677Z,42.34
2023-05-25T13:55:56.744Z,42.37
2023-05-25T13:58:26.262Z,43.05
2023-05-25T14:00:54.390Z,42.75
2023-05-25T14:03:22.709Z,42.72
2023-05-25T14:05:51.304Z,42.88
2023-05-25T14:08:19.333Z,42.55
2023-05-25T14:10:47.535Z,42.67
2023-05-25T14:13:15.892Z,42.71
2023-05-25T14:15:46.751Z,43.06
2023-05-25T14:18:15.204Z,42.57
2023-05-25T14:20:43.366Z,42.62
2023-05-25T14:23:14.218Z,42.91
2023-05-25T14:25:48.896Z,43.73
2023-05-25T14:28:17.025Z,43.90
2023-05-25T14:30:46.508Z,43.84
2023-05-25T14:33:17.221Z,44.22
2023-05-25T14:35:45.680Z,43.90
2023-05-25T14:38:14.238Z,43.33
2023-05-25T14:40:42.348Z,43.87
2023-05-25T14:43:15.916Z,43.57
2023-05-25T14:45:44.261Z,43.72
2023-05-25T14:48:16.936Z,43.34
2023-05-25T14:50:45.783Z,43.03
2023-05-25T14:53:14.560Z,43.26
2023-05-25T14:55:42.939Z,43.45
2023-05-25T14:58:11.869Z,43.53
2023-05-25T15:00:39.932Z,43.35
2023-05-25T15:03:08.166Z,41.91
2023-05-25T15:05:37.770Z,42.49
2023-05-25T15:08:06.237Z,42.42
2023-05-25T15:10:34.340Z,42.46
2023-05-25T15:13:02.442Z,42.80
2023-05-25T15:15:30.845Z,42.82
2023-05-25T15:17:58.987Z,41.94
2023-05-25T15:20:27.167Z,42.16
2023-05-25T15:22:56.618Z,42.95
2023-05-25T15:27:59.565Z,42.89
2023-05-25T15:30:27.811Z,42.91
2023-05-25T15:32:55.948Z,42.68
2023-05-25T15:35:31.029Z,43.15
2023-05-25T15:38:00.877Z,43.15
2023-05-25T15:40:29.156Z,43.71
2023-05-25T15:42:57.232Z,44.18
2023-05-25T15:45:26.171Z,44.65
2023-05-25T15:47:54.384Z,44.70
2023-05-25T15:50:22.569Z,44.78
2023-05-25T15:52:50.730Z,44.33
2023-05-25T15:55:20.573Z,44.79
2023-05-25T15:57:48.757Z,44.44
2023-05-25T16:00:17.893Z,44.08
2023-05-25T16:02:46.091Z,44.04
2023-05-25T16:05:14.305Z,43.82
2023-05-25T16:07:42.505Z,44.44
2023-05-25T16:10:11.453Z,44.85
2023-05-25T16:12:41.032Z,44.85
2023-05-25T16:15:10.545Z,44.69
2023-05-25T16:17:38.702Z,45.28
2023-05-25T16:20:09.264Z,44.81
2023-05-25T16:22:37.360Z,45.17
2023-05-25T16:25:06.373Z,45.83
2023-05-25T16:27:34.536Z,46.10
2023-05-25T16:30:04.224Z,45.70
2023-05-25T16:32:32.771Z,45.86
2023-05-25T16:35:01.520Z,46.23
2023-05-25T16:37:29.620Z,46.49
2023-05-25T16:39:57.732Z,46.67
2023-05-25T16:42:26.409Z,46.17
2023-05-25T16:44:54.448Z,45.84
2023-05-25T16:47:24.146Z,45.52
2023-05-25T16:49:52.231Z,45.77
2023-05-25T16:52:20.349Z,45.86
2023-05-25T16:54:48.430Z,45.69
2023-05-25T16:57:16.520Z,45.57
2023-05-25T16:59:45.571Z,45.76
2023-05-25T17:02:13.709Z,46.26
2023-05-25T17:04:43.464Z,46.56
2023-05-25T17:07:11.592Z,46.05
2023-05-25T17:09:39.819Z,46.87
2023-05-25T17:12:09.221Z,47.53
2023-05-25T17:14:37.384Z,46.73
2023-05-25T17:17:06.134Z,47.27
2023-05-25T17:19:34.636Z,47.30
2023-05-25T17:22:04.231Z,47.50
2023-05-25T17:24:32.363Z,47.81
2023-05-25T17:27:01.709Z,47.61
2023-05-25T17:29:29.840Z,47.54
2023-05-25T17:31:58.015Z,47.94
2023-05-25T17:34:26.171Z,48.22
2023-05-25T17:36:54.293Z,48.07
2023-05-25T17:39:23.773Z,48.15
2023-05-25T17:41:52.012Z,48.52
2023-05-25T17:44:20.191Z,48.75
2023-05-25T17:46:48.578Z,48.86
2023-05-25T17:49:16.738Z,48.88
2023-05-25T17:51:44.850Z,48.65
2023-05-25T17:54:15.338Z,48.33
2023-05-25T17:56:44.859Z,49.03
2023-05-25T17:59:13.251Z,48.64
2023-05-25T18:01:41.795Z,48.53
2023-05-25T18:04:10.276Z,48.66
2023-05-25T18:06:38.535Z,48.87
2023-05-25T18:09:06.938Z,49.16
2023-05-25T18:11:36.519Z,49.55
2023-05-25T18:14:06.237Z,49.29
2023-05-25T18:16:39.482Z,49.77
2023-05-25T18:19:09.393Z,50.14
2023-05-25T18:21:39.190Z,50.30
2023-05-25T18:24:08.988Z,50.48
2023-05-25T18:26:37.142Z,50.75
2023-05-25T18:29:06.675Z,51.02
2023-05-25T18:31:34.967Z,51.30
2023-05-25T18:34:03.281Z,51.24
2023-05-25T18:36:33.038Z,52.03
2023-05-25T18:39:01.280Z,52.74
2023-05-25T18:41:29.639Z,52.35
2023-05-25T18:43:58.219Z,52.09
2023-05-25T18:46:28.833Z,52.78
2023-05-25T18:48:57.286Z,53.39
2023-05-25T18:51:25.882Z,53.02
2023-05-25T18:53:54.738Z,53.59
2023-05-25T18:56:22.905Z,54.00
2023-05-25T18:58:52.100Z,54.50
2023-05-25T19:01:20.391Z,54.63
2023-05-25T19:03:49.972Z,54.63
2023-05-25T19:06:18.266Z,54.74
2023-05-25T19:08:46.510Z,54.97
2023-05-25T19:11:15.525Z,55.12
2023-05-25T19:13:44.124Z,55.23
2023-05-25T19:16:12.490Z,55.90
2023-05-25T19:18:40.726Z,56.30
2023-05-25T19:21:10.320Z,56.13
2023-05-25T19:23:38.537Z,56.80
2023-05-25T19:26:06.740Z,57.10
2023-05-25T19:28:35.061Z,57.14
2023-05-25T19:31:03.273Z,57.24
2023-05-25T19:33:31.466Z,57.49
2023-05-25T19:35:59.642Z,57.31
2023-05-25T19:38:40.343Z,58.16
2023-05-25T19:41:09.239Z,58.68
2023-05-25T19:43:38.236Z,58.87
2023-05-25T19:46:06.831Z,58.44
2023-05-25T19:48:35.258Z,59.15
2023-05-25T19:51:03.454Z,59.01
2023-05-25T19:53:33.040Z,59.16
2023-05-25T19:56:03.164Z,58.49
2023-05-25T19:58:31.529Z,59.20
2023-05-25T20:01:00.064Z,59.01
2023-05-25T20:03:28.353Z,59.55
2023-05-25T20:05:57.778Z,60.02
2023-05-25T20:08:27.175Z,60.07
2023-05-25T20:10:56.737Z,60.37
2023-05-25T20:13:25.045Z,60.94
2023-05-25T20:15:53.486Z,59.89
2023-05-25T20:18:23.873Z,60.20
2023-05-25T20:20:52.437Z,60.21
2023-05-25T20:23:20.822Z,60.34
2023-05-25T20:25:49.199Z,60.80
2023-05-25T20:28:19.573Z,60.97
2023-05-25T20:30:47.952Z,60.71
2023-05-25T20:33:16.347Z,60.75
2023-05-25T20:35:44.688Z,60.93
2023-05-25T20:38:13.132Z,60.97
2023-05-25T20:40:41.274Z,61.20
2023-05-25T20:43:09.413Z,61.08
2023-05-25T20:45:38.972Z,61.13
2023-05-25T20:48:07.417Z,61.12
2023-05-25T20:50:35.590Z,61.00
2023-05-25T20:53:03.952Z,61.07
2023-05-25T20:55:32.096Z,61.22
2023-05-25T20:58:00.989Z,61.75
2023-05-25T21:00:29.262Z,61.73
2023-05-25T21:02:59.153Z,61.83
2023-05-25T21:05:27.340Z,61.88
2023-05-25T21:07:55.477Z,62.29
2023-05-25T21:10:23.673Z,62.39
2023-05-25T21:12:51.984Z,62.77
2023-05-25T21:15:20.083Z,62.67
2023-05-25T21:17:48.262Z,63.03
2023-05-25T21:20:18.051Z,63.61
2023-05-25T21:22:46.258Z,63.96
2023-05-25T21:25:14.432Z,63.78
2023-05-25T21:27:42.744Z,63.88
2023-05-25T21:30:12.130Z,64.32
2023-05-25T21:32:40.997Z,64.43
2023-05-25T21:35:09.288Z,64.57
2023-05-25T21:37:38.817Z,65.04
2023-05-25T21:40:08.873Z,64.99
2023-05-25T21:42:37.260Z,64.76
2023-05-25T21:45:06.332Z,64.94
2023-05-25T21:47:34.424Z,64.31
2023-05-25T21:50:02.671Z,64.55
2023-05-25T21:52:30.842Z,65.13
2023-05-25T21:55:00.337Z,65.49
2023-05-25T21:57:28.483Z,65.53
2023-05-25T21:59:56.568Z,65.91
2023-05-25T22:02:24.852Z,66.35
2023-05-25T22:04:53.074Z,66.27
2023-05-25T22:07:21.272Z,66.47
2023-05-25T22:09:49.409Z,66.33
2023-05-25T22:12:20.636Z,66.79
2023-05-25T22:14:49.184Z,67.31
2023-05-25T22:17:18.879Z,67.65
2023-05-25T22:19:55.243Z,67.63
2023-05-25T22:22:23.910Z,67.60
2023-05-25T22:24:52.233Z,67.53
2023-05-25T22:27:21.903Z,68.20
2023-05-25T22:29:50.243Z,67.51
2023-05-25T22:32:18.365Z,67.75
2023-05-25T22:34:47.241Z,67.61
2023-05-25T22:37:17.233Z,67.86
2023-05-25T22:39:45.868Z,67.94
2023-05-25T22:42:14.027Z,67.95
2023-05-25T22:44:43.554Z,68.63
2023-05-25T22:47:11.755Z,69.15
2023-05-25T22:49:43.002Z,68.92
2023-05-25T22:52:13.274Z,68.87
2023-05-25T22:54:41.403Z,69.55
2023-05-25T22:57:11.113Z,69.50
2023-05-25T22:59:39.230Z,70.04
2023-05-25T23:02:08.920Z,69.94
2023-05-25T23:04:37.354Z,70.74
2023-05-25T23:07:06.051Z,70.80
2023-05-25T23:09:34.229Z,70.28
2023-05-25T23:12:02.707Z,69.62
2023-05-25T23:14:31.340Z,70.22
2023-05-25T23:16:59.468Z,70.76
2023-05-25T23:19:29.052Z,70.83
2023-05-25T23:21:58.561Z,71.30
2023-05-25T23:24:26.963Z,71.27
2023-05-25T23:26:55.064Z,71.82
2023-05-25T23:29:23.258Z,71.83
2023-05-25T23:31:51.461Z,71.00
2023-05-25T23:34:19.890Z,70.27
2023-05-25T23:36:49.390Z,69.88
2023-05-25T23:39:17.819Z,69.94
2023-05-25T23:41:45.946Z,70.77
2023-05-25T23:44:14.282Z,70.94
2023-05-25T23:46:42.670Z,71.18
2023-05-25T23:49:10.840Z,71.58
2023-05-25T23:51:38.989Z,71.86
2023-05-25T23:54:08.744Z,71.92
2023-05-25T23:56:36.865Z,72.22
2023-05-25T23:59:05.262Z,72.19
